createdAt,value
2018-03-06T00:00:51.710Z,98301.21
2018-03-06T00:03:19.212Z,98304.43
2018-03-06T00:05:46.674Z,98302.16
2018-03-06T00:08:14.163Z,98308.52
2018-03-06T00:10:41.614Z,98301.25
2018-03-06T00:13:09.059Z,98303.26
2018-03-06T00:15:36.496Z,98298.48
2018-03-06T00:18:03.995Z,98302.02
2018-03-06T00:20:31.460Z,98298.48
2018-03-06T00:22:58.952Z,98306.03
2018-03-06T00:25:26.440Z,98305.41
2018-03-06T00:27:53.937Z,98305.77
2018-03-06T00:30:21.681Z,98302.74
2018-03-06T00:32:49.140Z,98299.72
2018-03-06T00:35:16.629Z,98291.28
2018-03-06T00:37:44.095Z,98287.41
2018-03-06T00:40:11.574Z,98294.29
2018-03-06T00:42:39.111Z,98298.56
2018-03-06T00:45:06.556Z,98294.73
2018-03-06T00:47:34.022Z,98288.66
2018-03-06T00:50:01.496Z,98287.52
2018-03-06T00:52:28.974Z,98288.26
2018-03-06T00:54:56.456Z,98289.77
2018-03-06T00:57:23.978Z,98288.52
2018-03-06T00:59:51.438Z,98280.63
2018-03-06T01:02:18.935Z,98280.63
2018-03-06T01:04:46.417Z,98273.67
2018-03-06T01:07:13.914Z,98280.73
2018-03-06T01:09:41.380Z,98272.78
2018-03-06T01:12:08.897Z,98277.58
2018-03-06T01:14:36.380Z,98276.09
2018-03-06T01:17:03.878Z,98264.44
2018-03-06T01:19:31.340Z,98258.34
2018-03-06T01:21:58.818Z,98258.28
2018-03-06T01:24:26.289Z,98257.89
2018-03-06T01:26:53.738Z,98257.23
2018-03-06T01:29:21.221Z,98265.02
2018-03-06T01:31:48.674Z,98263.52
2018-03-06T01:34:16.133Z,98262.63
2018-03-06T01:36:43.566Z,98264.14
2018-03-06T01:39:11.095Z,98253.84
2018-03-06T01:41:38.566Z,98249.77
2018-03-06T01:44:06.014Z,98249.20
2018-03-06T01:46:33.494Z,98244.86
2018-03-06T01:49:00.974Z,98238.94
2018-03-06T01:51:28.450Z,98245.95
2018-03-06T01:53:55.916Z,98231.73
2018-03-06T01:56:23.354Z,98233.81
2018-03-06T01:58:50.817Z,98225.66
2018-03-06T02:01:18.759Z,98222.24
2018-03-06T02:03:46.238Z,98220.28
2018-03-06T02:06:13.700Z,98214.69
2018-03-06T02:08:41.163Z,98212.01
2018-03-06T02:11:08.672Z,98219.08
2018-03-06T02:13:36.185Z,98217.13
2018-03-06T02:16:03.767Z,98213.52
2018-03-06T02:18:31.263Z,98208.91
2018-03-06T02:20:58.782Z,98203.38
2018-03-06T02:23:26.241Z,98198.11
2018-03-06T02:25:53.803Z,98195.09
2018-03-06T02:28:21.302Z,98195.60
2018-03-06T02:30:48.752Z,98186.54
2018-03-06T02:33:16.231Z,98180.16
2018-03-06T02:35:43.744Z,98178.21
2018-03-06T02:38:11.212Z,98182.58
2018-03-06T02:40:38.719Z,98180.62
2018-03-06T02:43:06.200Z,98180.19
2018-03-06T02:45:33.662Z,98175.12
2018-03-06T02:48:01.117Z,98176.03
2018-03-06T02:50:28.597Z,98170.94
2018-03-06T02:52:56.075Z,98169.00
2018-03-06T02:55:23.516Z,98168.06
2018-03-06T02:57:51.002Z,98170.65
2018-03-06T03:00:18.508Z,98166.47
2018-03-06T03:02:45.964Z,98169.03
2018-03-06T03:05:13.409Z,98155.92
2018-03-06T03:07:45.884Z,98159.38
2018-03-06T03:10:13.330Z,98156.27
2018-03-06T03:12:40.782Z,98159.69
2018-03-06T03:15:08.239Z,98155.81
2018-03-06T03:17:35.716Z,98158.46
2018-03-06T03:20:03.182Z,98160.20
2018-03-06T03:22:30.921Z,98153.28
2018-03-06T03:24:58.399Z,98155.50
2018-03-06T03:27:25.891Z,98151.57
2018-03-06T03:29:53.347Z,98156.64
2018-03-06T03:32:20.821Z,98157.72
2018-03-06T03:34:48.308Z,98148.89
2018-03-06T03:37:15.762Z,98144.08
2018-03-06T03:39:43.206Z,98139.98
2018-03-06T03:42:10.684Z,98139.47
2018-03-06T03:44:38.164Z,98132.17
2018-03-06T03:47:10.677Z,98134.91
2018-03-06T03:49:38.133Z,98130.66
2018-03-06T03:52:05.617Z,98132.09
2018-03-06T03:54:33.081Z,98126.85
2018-03-06T03:57:00.565Z,98127.59
2018-03-06T03:59:28.027Z,98126.73
2018-03-06T04:01:55.498Z,98117.08
2018-03-06T04:04:22.941Z,98125.17
2018-03-06T04:06:50.398Z,98125.83
2018-03-06T04:09:17.850Z,98119.79
2018-03-06T04:11:45.324Z,98122.92
2018-03-06T04:14:12.783Z,98129.58
2018-03-06T04:16:40.259Z,98129.40
2018-03-06T04:19:07.703Z,98125.05
2018-03-06T04:21:35.195Z,98126.36
2018-03-06T04:24:02.663Z,98127.75
2018-03-06T04:26:30.182Z,98126.33
2018-03-06T04:28:57.650Z,98133.73
2018-03-06T04:31:25.138Z,98125.84
2018-03-06T04:33:52.604Z,98128.16
2018-03-06T04:36:20.099Z,98125.99
2018-03-06T04:38:47.578Z,98120.05
2018-03-06T04:41:15.084Z,98117.94
2018-03-06T04:43:42.629Z,98121.36
2018-03-06T04:46:10.077Z,98115.26
2018-03-06T04:48:37.543Z,98117.08
2018-03-06T04:51:05.043Z,98110.89
2018-03-06T04:53:32.503Z,98113.39
2018-03-06T04:55:59.982Z,98109.00
2018-03-06T04:58:27.452Z,98112.53
2018-03-06T05:00:54.943Z,98112.48
2018-03-06T05:03:22.434Z,98123.56
2018-03-06T05:05:49.889Z,98115.56
2018-03-06T05:08:17.405Z,98117.94
2018-03-06T05:10:44.871Z,98116.81
2018-03-06T05:13:12.354Z,98114.61
2018-03-06T05:15:39.822Z,98114.01
2018-03-06T05:18:07.301Z,98114.64
2018-03-06T05:20:34.753Z,98111.77
2018-03-06T05:23:02.236Z,98112.77
2018-03-06T05:25:29.721Z,98104.26
2018-03-06T05:27:57.217Z,98108.45
2018-03-06T05:30:24.740Z,98108.14
2018-03-06T05:32:52.251Z,98108.56
2018-03-06T05:35:19.707Z,98109.47
2018-03-06T05:37:47.259Z,98101.45
2018-03-06T05:40:14.757Z,98102.86
2018-03-06T05:42:42.225Z,98104.23
2018-03-06T05:45:09.715Z,98108.84
2018-03-06T05:47:37.187Z,98110.30
2018-03-06T05:50:04.663Z,98109.70
2018-03-06T05:52:32.137Z,98101.17
2018-03-06T05:54:59.581Z,98111.80
2018-03-06T05:57:27.073Z,98103.56
2018-03-06T05:59:54.535Z,98104.88
2018-03-06T06:02:22.870Z,98115.06
2018-03-06T06:04:50.373Z,98120.59
2018-03-06T06:07:17.911Z,98109.16
2018-03-06T06:09:45.667Z,98108.63
2018-03-06T06:12:13.128Z,98110.05
2018-03-06T06:14:40.603Z,98108.61
2018-03-06T06:17:08.087Z,98103.91
2018-03-06T06:19:35.563Z,98108.04
2018-03-06T06:22:03.047Z,98104.34
2018-03-06T06:24:30.624Z,98106.94
2018-03-06T06:26:58.099Z,98109.77
2018-03-06T06:29:25.569Z,98105.69
2018-03-06T06:31:53.067Z,98100.41
2018-03-06T06:34:20.535Z,98102.22
2018-03-06T06:36:48.161Z,98104.41
2018-03-06T06:39:20.709Z,98106.20
2018-03-06T06:41:48.219Z,98099.66
2018-03-06T06:44:15.705Z,98095.30
2018-03-06T06:46:43.234Z,98101.31
2018-03-06T06:49:10.680Z,98098.06
2018-03-06T06:51:38.145Z,98097.27
2018-03-06T06:54:05.649Z,98097.07
2018-03-06T06:56:33.101Z,98092.09
2018-03-06T06:59:00.597Z,98109.28
2018-03-06T07:01:28.054Z,98110.48
2018-03-06T07:03:55.487Z,98105.33
2018-03-06T07:06:22.941Z,98108.11
2018-03-06T07:08:50.412Z,98102.68
2018-03-06T07:11:18.031Z,98102.68
2018-03-06T07:13:45.504Z,98094.96
2018-03-06T07:16:12.963Z,98099.23
2018-03-06T07:18:40.485Z,98100.20
2018-03-06T07:21:07.930Z,98108.63
2018-03-06T07:23:36.008Z,98113.64
2018-03-06T07:26:03.619Z,98110.53
2018-03-06T07:28:31.161Z,98114.80
2018-03-06T07:30:58.667Z,98112.98
2018-03-06T07:33:26.751Z,98121.69
2018-03-06T07:35:54.279Z,98120.58
2018-03-06T07:38:21.767Z,98122.77
2018-03-06T07:40:49.211Z,98114.23
2018-03-06T07:43:16.750Z,98109.19
2018-03-06T07:45:44.185Z,98111.37
2018-03-06T07:48:11.649Z,98108.56
2018-03-06T07:50:39.117Z,98115.34
2018-03-06T07:53:06.581Z,98116.36
2018-03-06T07:55:34.032Z,98108.24
2018-03-06T07:58:01.469Z,98106.82
2018-03-06T08:00:29.811Z,98103.91
2018-03-06T08:02:57.314Z,98104.97
2018-03-06T08:05:24.782Z,98106.27
2018-03-06T08:07:52.429Z,98107.42
2018-03-06T08:10:19.941Z,98107.25
2018-03-06T08:12:47.419Z,98103.70
2018-03-06T08:15:14.956Z,98107.39
2018-03-06T08:17:42.410Z,98108.27
2018-03-06T08:20:09.847Z,98110.86
2018-03-06T08:22:37.305Z,98113.45
2018-03-06T08:25:04.841Z,98114.44
2018-03-06T08:27:32.348Z,98110.14
2018-03-06T08:29:59.794Z,98108.39
2018-03-06T08:32:27.268Z,98103.56
2018-03-06T08:34:54.758Z,98107.82
2018-03-06T08:37:22.262Z,98108.73
2018-03-06T08:39:49.742Z,98104.19
2018-03-06T08:42:17.210Z,98103.41
2018-03-06T08:44:44.684Z,98100.03
2018-03-06T08:47:12.226Z,98093.36
2018-03-06T08:49:39.795Z,98083.00
2018-03-06T08:52:08.543Z,98089.08
2018-03-06T08:54:36.038Z,98081.20
2018-03-06T08:57:03.529Z,98080.19
2018-03-06T08:59:30.998Z,98073.55
2018-03-06T09:01:58.528Z,98073.67
2018-03-06T09:04:26.007Z,98073.14
2018-03-06T09:06:53.701Z,98075.39
2018-03-06T09:09:21.256Z,98063.06
2018-03-06T09:11:48.789Z,98063.53
2018-03-06T09:14:16.297Z,98067.16
2018-03-06T09:16:43.774Z,98061.32
2018-03-06T09:19:11.323Z,98065.22
2018-03-06T09:21:38.773Z,98056.95
2018-03-06T09:24:06.520Z,98050.84
2018-03-06T09:26:34.953Z,98061.62
2018-03-06T09:29:02.436Z,98051.47
2018-03-06T09:31:29.937Z,98045.27
2018-03-06T09:33:57.388Z,98049.14
2018-03-06T09:36:24.868Z,98058.50
2018-03-06T09:38:52.378Z,98056.33
2018-03-06T09:41:19.857Z,98055.47
2018-03-06T09:43:47.366Z,98054.67
2018-03-06T09:46:14.934Z,98056.68
2018-03-06T09:48:42.410Z,98051.75
2018-03-06T09:51:09.878Z,98060.89
2018-03-06T09:53:37.350Z,98057.59
2018-03-06T09:56:04.821Z,98063.77
2018-03-06T09:58:32.283Z,98071.25
2018-03-06T10:00:59.716Z,98070.17
2018-03-06T10:03:27.290Z,98071.99
2018-03-06T10:05:54.792Z,98065.13
2018-03-06T10:08:22.298Z,98062.33
2018-03-06T10:10:49.792Z,98059.48
2018-03-06T10:13:17.278Z,98063.69
2018-03-06T10:15:44.724Z,98057.92
2018-03-06T10:18:12.251Z,98063.08
2018-03-06T10:20:39.686Z,98064.16
2018-03-06T10:23:07.729Z,98070.23
2018-03-06T10:25:35.265Z,98059.09
2018-03-06T10:28:02.741Z,98061.39
2018-03-06T10:30:30.180Z,98058.49
2018-03-06T10:32:57.628Z,98054.65
2018-03-06T10:35:25.138Z,98053.77
2018-03-06T10:37:53.547Z,98052.20
2018-03-06T10:40:21.056Z,98045.92
2018-03-06T10:42:48.486Z,98045.78
2018-03-06T10:45:16.037Z,98046.62
2018-03-06T10:47:43.506Z,98048.58
2018-03-06T10:50:11.120Z,98042.34
2018-03-06T10:52:38.612Z,98035.58
2018-03-06T10:55:06.110Z,98034.40
2018-03-06T10:57:33.621Z,98034.81
2018-03-06T11:00:01.114Z,98038.92
2018-03-06T11:02:32.411Z,98035.80
2018-03-06T11:04:59.901Z,98041.28
2018-03-06T11:07:27.364Z,98037.75
2018-03-06T11:09:54.826Z,98031.35
2018-03-06T11:12:22.340Z,98029.45
2018-03-06T11:14:49.816Z,98033.27
2018-03-06T11:17:17.284Z,98025.32
2018-03-06T11:19:44.742Z,98031.47
2018-03-06T11:22:12.203Z,98028.61
2018-03-06T11:24:39.739Z,98021.02
2018-03-06T11:27:07.190Z,98020.97
2018-03-06T11:29:34.707Z,98019.11
2018-03-06T11:32:02.172Z,98015.58
2018-03-06T11:34:29.608Z,98019.37
2018-03-06T11:36:57.060Z,98010.11
2018-03-06T11:39:24.547Z,98013.23
2018-03-06T11:41:52.066Z,98012.50
2018-03-06T11:44:19.650Z,98012.50
2018-03-06T11:46:47.197Z,98003.56
2018-03-06T11:49:14.684Z,98003.52
2018-03-06T11:51:42.131Z,97993.94
2018-03-06T11:54:09.606Z,97996.42
2018-03-06T11:56:37.124Z,97994.34
2018-03-06T11:59:04.586Z,97995.66
2018-03-06T12:01:32.116Z,97999.05
2018-03-06T12:03:59.623Z,98001.23
2018-03-06T12:06:27.157Z,98000.12
2018-03-06T12:08:54.590Z,97998.65
2018-03-06T12:11:22.216Z,97997.81
2018-03-06T12:13:49.709Z,97989.37
2018-03-06T12:16:17.254Z,97990.73
2018-03-06T12:18:44.702Z,97994.25
2018-03-06T12:21:12.355Z,97989.91
2018-03-06T12:23:39.789Z,97993.25
2018-03-06T12:26:09.108Z,97988.56
2018-03-06T12:28:36.671Z,97985.22
2018-03-06T12:31:04.152Z,97983.66
2018-03-06T12:33:31.659Z,97978.69
2018-03-06T12:35:59.091Z,97984.47
2018-03-06T12:38:26.586Z,97982.84
2018-03-06T12:40:54.035Z,97972.88
2018-03-06T12:43:21.567Z,97970.86
2018-03-06T12:45:49.024Z,97973.86
2018-03-06T12:48:16.566Z,97972.65
2018-03-06T12:50:44.090Z,97973.77
2018-03-06T12:53:11.585Z,97972.23
2018-03-06T12:55:39.096Z,97974.62
2018-03-06T12:58:06.572Z,97968.36
2018-03-06T13:00:34.063Z,97967.86
2018-03-06T13:03:01.526Z,97974.53
2018-03-06T13:05:28.994Z,97972.27
2018-03-06T13:07:56.471Z,97979.89
2018-03-06T13:10:23.985Z,97977.56
2018-03-06T13:12:51.586Z,97972.06
2018-03-06T13:15:19.173Z,97973.69
2018-03-06T13:17:46.767Z,97979.73
2018-03-06T13:20:14.333Z,97967.17
2018-03-06T13:22:41.850Z,97970.29
2018-03-06T13:25:09.309Z,97973.63
2018-03-06T13:27:36.834Z,97971.45
2018-03-06T13:30:04.321Z,97968.48
2018-03-06T13:32:32.145Z,97971.00
2018-03-06T13:34:59.785Z,97971.55
2018-03-06T13:37:32.290Z,97973.61
2018-03-06T13:39:59.788Z,97971.75
2018-03-06T13:42:27.329Z,97971.36
2018-03-06T13:44:54.867Z,97971.30
2018-03-06T13:47:22.365Z,97971.75
2018-03-06T13:49:49.895Z,97962.91
2018-03-06T13:52:17.398Z,97964.56
2018-03-06T13:54:44.867Z,97957.45
2018-03-06T13:57:12.368Z,97956.59
2018-03-06T13:59:40.017Z,97961.02
2018-03-06T14:02:07.479Z,97963.09
2018-03-06T14:04:34.997Z,97955.22
2018-03-06T14:07:02.509Z,97956.98
2018-03-06T14:09:30.046Z,97955.22
2018-03-06T14:11:57.511Z,97956.02
2018-03-06T14:14:25.033Z,97952.20
2018-03-06T14:16:52.507Z,97955.77
2018-03-06T14:19:19.971Z,97952.89
2018-03-06T14:21:47.621Z,97949.35
2018-03-06T14:24:15.119Z,97952.39
2018-03-06T14:26:42.610Z,97946.92
2018-03-06T14:29:10.286Z,97946.99
2018-03-06T14:31:37.827Z,97949.50
2018-03-06T14:34:05.338Z,97943.70
2018-03-06T14:36:32.816Z,97953.47
2018-03-06T14:39:00.393Z,97947.56
2018-03-06T14:41:27.843Z,97950.55
2018-03-06T14:43:55.330Z,97948.11
2018-03-06T14:46:22.837Z,97945.28
2018-03-06T14:48:50.324Z,97938.62
2018-03-06T14:51:17.811Z,97948.14
2018-03-06T14:53:45.273Z,97942.95
2018-03-06T14:56:12.731Z,97944.41
2018-03-06T14:58:40.307Z,97948.17
2018-03-06T15:01:07.787Z,97941.52
2018-03-06T15:03:35.358Z,97947.77
2018-03-06T15:06:02.859Z,97951.64
2018-03-06T15:08:30.362Z,97948.52
2018-03-06T15:10:57.863Z,97947.89
2018-03-06T15:13:25.419Z,97951.83
2018-03-06T15:15:52.961Z,97944.14
2018-03-06T15:18:20.453Z,97941.60
2018-03-06T15:20:47.985Z,97939.42
2018-03-06T15:23:15.525Z,97941.22
2018-03-06T15:25:43.003Z,97939.92
2018-03-06T15:28:10.493Z,97937.84
2018-03-06T15:30:38.078Z,97939.73
2018-03-06T15:33:05.605Z,97942.17
2018-03-06T15:35:33.147Z,97935.73
2018-03-06T15:38:00.665Z,97938.46
2018-03-06T15:40:28.163Z,97944.22
2018-03-06T15:42:55.641Z,97936.48
2018-03-06T15:45:23.133Z,97944.55
2018-03-06T15:47:50.637Z,97943.97
2018-03-06T15:50:18.089Z,97938.72
2018-03-06T15:52:45.575Z,97939.53
2018-03-06T15:55:13.081Z,97943.46
2018-03-06T15:57:40.562Z,97949.81
2018-03-06T16:00:08.022Z,97944.23
2018-03-06T16:02:35.520Z,97945.92
2018-03-06T16:05:02.979Z,97947.45
2018-03-06T16:07:30.536Z,97946.14
2018-03-06T16:09:57.977Z,97950.77
2018-03-06T16:12:25.500Z,97945.96
2018-03-06T16:14:52.975Z,97946.37
2018-03-06T16:17:20.484Z,97949.85
2018-03-06T16:19:48.056Z,97949.39
2018-03-06T16:22:15.553Z,97950.30
2018-03-06T16:24:43.037Z,97950.41
2018-03-06T16:27:10.511Z,97954.37
2018-03-06T16:29:38.013Z,97956.27
2018-03-06T16:32:05.507Z,97954.97
2018-03-06T16:34:33.027Z,97959.80
2018-03-06T16:37:00.675Z,97960.68
2018-03-06T16:39:28.332Z,97963.78
2018-03-06T16:41:55.808Z,97961.19
2018-03-06T16:44:23.336Z,97965.02
2018-03-06T16:46:50.792Z,97966.52
2018-03-06T16:49:18.388Z,97969.60
2018-03-06T16:51:45.857Z,97961.73
2018-03-06T16:54:13.388Z,97967.34
2018-03-06T16:56:40.860Z,97966.98
2018-03-06T16:59:08.491Z,97967.96
2018-03-06T17:01:36.021Z,97971.97
2018-03-06T17:04:03.549Z,97968.73
2018-03-06T17:06:31.112Z,97960.72
2018-03-06T17:08:58.564Z,97965.31
2018-03-06T17:11:26.009Z,97966.62
2018-03-06T17:13:53.583Z,97960.50
2018-03-06T17:16:21.071Z,97961.95
2018-03-06T17:18:48.699Z,97964.95
2018-03-06T17:21:16.185Z,97964.95
2018-03-06T17:23:43.797Z,97962.91
2018-03-06T17:26:11.285Z,97963.41
2018-03-06T17:28:43.777Z,97965.71
2018-03-06T17:31:11.374Z,97964.98
2018-03-06T17:33:38.857Z,97962.84
2018-03-06T17:36:06.337Z,97964.80
2018-03-06T17:38:33.843Z,97962.52
2018-03-06T17:41:01.334Z,97967.42
2018-03-06T17:43:28.824Z,97963.05
2018-03-06T17:45:56.571Z,97965.49
2018-03-06T17:48:24.134Z,97965.60
2018-03-06T17:50:51.659Z,97965.60
2018-03-06T17:53:19.172Z,97968.59
2018-03-06T17:55:46.685Z,97963.53
2018-03-06T17:58:14.320Z,97969.24
2018-03-06T18:00:41.808Z,97961.17
2018-03-06T18:03:09.334Z,97965.67
2018-03-06T18:05:36.841Z,97963.83
2018-03-06T18:08:04.420Z,97959.48
2018-03-06T18:10:31.972Z,97963.86
2018-03-06T18:12:59.475Z,97974.23
2018-03-06T18:15:27.102Z,97968.33
2018-03-06T18:17:54.577Z,97962.03
2018-03-06T18:20:22.099Z,97961.97
2018-03-06T18:22:49.547Z,97964.16
2018-03-06T18:25:17.181Z,97968.91
2018-03-06T18:27:44.656Z,97959.52
2018-03-06T18:30:12.170Z,97962.91
2018-03-06T18:32:39.659Z,97958.58
2018-03-06T18:35:07.192Z,97957.64
2018-03-06T18:37:34.903Z,97954.33
2018-03-06T18:40:02.438Z,97948.54
2018-03-06T18:42:29.907Z,97945.52
2018-03-06T18:44:57.420Z,97949.34
2018-03-06T18:47:24.832Z,97951.63
2018-03-06T18:50:02.012Z,97954.25
2018-03-06T18:52:29.521Z,97953.27
2018-03-06T18:54:57.048Z,97951.34
2018-03-06T18:57:24.600Z,97952.69
2018-03-06T19:00:04.031Z,97952.43
2018-03-06T19:05:41.464Z,97949.41
2018-03-06T19:08:09.126Z,97944.64
2018-03-06T19:10:36.583Z,97942.42
2018-03-06T19:13:04.094Z,97944.09
2018-03-06T19:15:31.562Z,97945.33
2018-03-06T19:17:59.120Z,97940.20
2018-03-06T19:20:26.606Z,97938.09
2018-03-06T19:22:54.080Z,97938.20
2018-03-06T19:25:21.896Z,97938.20
2018-03-06T19:27:49.468Z,97936.38
2018-03-06T19:30:16.997Z,97938.56
2018-03-06T19:32:44.601Z,97940.39
2018-03-06T19:35:12.176Z,97936.75
2018-03-06T19:37:39.714Z,97935.98
2018-03-06T19:40:07.269Z,97927.94
2018-03-06T19:42:34.878Z,97927.54
2018-03-06T19:45:02.398Z,97923.21
2018-03-06T19:47:29.950Z,97931.58
2018-03-06T19:49:57.518Z,97930.02
2018-03-06T19:52:25.025Z,97934.09
2018-03-06T19:54:52.548Z,97926.73
2018-03-06T19:57:20.244Z,97927.06
2018-03-06T19:59:47.830Z,97927.98
2018-03-06T20:02:15.513Z,97932.81
2018-03-06T20:04:43.064Z,97929.03
2018-03-06T20:07:10.625Z,97929.95
2018-03-06T20:09:38.110Z,97931.77
2018-03-06T20:12:05.604Z,97936.13
2018-03-06T20:14:39.233Z,97929.58
2018-03-06T20:17:06.811Z,97936.53
2018-03-06T20:19:40.260Z,97933.14
2018-03-06T20:22:07.808Z,97933.03
2018-03-06T20:24:40.960Z,97927.25
2018-03-06T20:27:08.422Z,97933.14
2018-03-06T20:29:35.890Z,97934.75
2018-03-06T20:32:08.982Z,97931.07
2018-03-06T20:34:36.542Z,97936.20
2018-03-06T20:37:04.054Z,97935.87
2018-03-06T20:39:37.332Z,97935.44
2018-03-06T20:42:04.828Z,97936.42
2018-03-06T20:44:32.360Z,97929.98
2018-03-06T20:47:05.448Z,97930.92
2018-03-06T20:49:33.224Z,97930.92
2018-03-06T20:52:00.740Z,97935.47
2018-03-06T20:54:33.766Z,97934.70
2018-03-06T20:57:01.283Z,97933.84
2018-03-06T20:59:28.739Z,97927.47
2018-03-06T21:01:56.189Z,97926.41
2018-03-06T21:04:23.766Z,97924.48
2018-03-06T21:06:51.258Z,97915.91
2018-03-06T21:09:18.775Z,97924.56
2018-03-06T21:11:46.261Z,97919.76
2018-03-06T21:14:13.821Z,97917.03
2018-03-06T21:16:41.331Z,97920.34
2018-03-06T21:19:08.782Z,97923.36
2018-03-06T21:21:36.278Z,97923.06
2018-03-06T21:24:03.741Z,97916.01
2018-03-06T21:26:31.248Z,97922.20
2018-03-06T21:28:58.731Z,97923.66
2018-03-06T21:31:26.218Z,97928.59
2018-03-06T21:33:54.636Z,97927.03
2018-03-06T21:36:22.206Z,97927.28
2018-03-06T21:38:49.776Z,97925.47
2018-03-06T21:41:17.243Z,97924.67
2018-03-06T21:43:44.689Z,97925.25
2018-03-06T21:46:12.160Z,97924.85
2018-03-06T21:48:39.628Z,97923.03
2018-03-06T21:51:07.070Z,97930.42
2018-03-06T21:53:34.556Z,97924.27
2018-03-06T21:56:02.006Z,97919.50
2018-03-06T21:58:29.497Z,97919.43
2018-03-06T22:00:56.949Z,97919.83
2018-03-06T22:03:24.536Z,97918.16
2018-03-06T22:05:52.091Z,97917.43
2018-03-06T22:08:19.638Z,97921.61
2018-03-06T22:10:47.118Z,97922.73
2018-03-06T22:13:14.572Z,97914.92
2018-03-06T22:15:42.053Z,97916.92
2018-03-06T22:18:09.653Z,97922.23
2018-03-06T22:20:37.160Z,97920.02
2018-03-06T22:23:04.712Z,97912.84
2018-03-06T22:25:32.209Z,97916.41
2018-03-06T22:27:59.734Z,97917.54
2018-03-06T22:30:29.584Z,97918.70
2018-03-06T22:32:57.066Z,97920.52
2018-03-06T22:35:24.606Z,97918.52
2018-03-06T22:37:53.863Z,97924.30
2018-03-06T22:40:21.307Z,97919.20
2018-03-06T22:42:48.817Z,97917.90
2018-03-06T22:45:16.998Z,97921.94
2018-03-06T22:47:44.699Z,97922.73
2018-03-06T22:50:12.234Z,97927.69
2018-03-06T22:52:39.680Z,97928.23
2018-03-06T22:55:10.735Z,97927.91
2018-03-06T22:57:38.189Z,97927.11
2018-03-06T23:00:05.650Z,97928.52
2018-03-06T23:02:33.118Z,97924.45
2018-03-06T23:05:00.615Z,97928.23
2018-03-06T23:07:28.099Z,97930.60
2018-03-06T23:09:55.570Z,97927.62
2018-03-06T23:12:23.037Z,97924.96
2018-03-06T23:14:50.469Z,97926.23
2018-03-06T23:17:17.916Z,97923.87
2018-03-06T23:19:45.401Z,97927.28
2018-03-06T23:22:12.865Z,97928.75
2018-03-06T23:24:40.351Z,97932.02
2018-03-06T23:27:07.831Z,97932.16
2018-03-06T23:29:35.317Z,97937.63
2018-03-06T23:32:02.803Z,97934.27
2018-03-06T23:34:30.247Z,97937.84
2018-03-06T23:36:57.689Z,97942.31
2018-03-06T23:39:25.281Z,97935.87
2018-03-06T23:41:52.745Z,97940.57
2018-03-06T23:44:20.218Z,97938.13
2018-03-06T23:46:47.735Z,97940.50
2018-03-06T23:49:15.247Z,97945.16
2018-03-06T23:51:42.746Z,97951.37
2018-03-06T23:54:10.235Z,97951.16
2018-03-06T23:56:37.703Z,97947.95
2018-03-06T23:59:05.153Z,97948.05
